Syros I — D5IV5 — position and weather

sailwx.info

Track history (hours):
 
Tides and Currents Weather Stations Pressure Air Temp Water Temp Dewpoint Dewpoint Depression Visibility Wind Speed Wind Dir Waves Ship Positions

Syros I

Last reported at 2018-Jun-09 02:15 UTC. Time now 2018-Jun-21 14:30 UTC.
Position S 24°24' W 046°17'.
Warning: this ship's position is 12 days out of date.

Length 229 m; draft 13.3 m.

Type: Cargo ship. MMSI: 636017002.

Date/timePositionNaut miles runAvg speedWind from/ knotsBaromVisibWave heightAir tempDewpointWater temp
2018-Jun-09 02:15S 24°24' W 046°17'310.8
2018-Jun-09 01:59S 24°21' W 046°19'511.0
2018-Jun-09 01:30S 24°17' W 046°21'510.8
2018-Jun-09 01:00S 24°11' W 046°22'611.2
2018-Jun-09 00:30S 24°06' W 046°22'5 9.9
2018-Jun-09 00:00S 24°01' W 046°21'3 6.2
2018-Jun-08 23:30S 23°59' W 046°18'1 0.0
2018-Jun-07 11:14S 23°59' W 046°17'0 1.8
2018-Jun-07 10:58S 23°59' W 046°18'3 7.0
2018-Jun-07 10:30S 24°01' W 046°21'4 7.9
2018-Jun-07 10:00S 24°05' W 046°22'3 5.1
2018-Jun-07 09:30S 24°07' W 046°21'0 0.4
2018-Jun-07 08:59S 24°07' W 046°21'0 0.1
2018-Jun-07 08:29S 24°07' W 046°21'0 0.0
2018-Jun-07 07:59S 24°07' W 046°21'0 0.0
2018-Jun-07 07:29S 24°07' W 046°21'0 0.0
2018-Jun-07 06:59S 24°07' W 046°21'0 0.0
2018-Jun-07 06:29S 24°07' W 046°21'0 0.0
2018-Jun-07 05:59S 24°07' W 046°21'0 0.0
2018-Jun-07 05:29S 24°07' W 046°21'0 0.0
2018-Jun-07 04:59S 24°07' W 046°21'0 0.0
2018-Jun-07 04:29S 24°07' W 046°21'0 0.0
2018-Jun-07 03:59S 24°07' W 046°21'0 0.0
2018-Jun-07 03:29S 24°07' W 046°21'0 0.0
2018-Jun-07 02:59S 24°07' W 046°21'0 0.0
2018-Jun-07 02:29S 24°07' W 046°21'0 0.0
2018-Jun-07 01:59S 24°07' W 046°21'0 0.0
2018-Jun-07 01:20S 24°07' W 046°21'0 0.0
2018-Jun-07 00:53S 24°07' W 046°21'0 0.0
2018-Jun-07 00:29S 24°07' W 046°21'0 0.0
2018-Jun-06 23:53S 24°07' W 046°21'0 0.0
2018-Jun-06 23:29S 24°07' W 046°21'0 0.0
2018-Jun-06 22:59S 24°07' W 046°21'0 0.0
2018-Jun-06 22:17S 24°07' W 046°21'0 0.0
2018-Jun-06 21:59S 24°07' W 046°21'0 0.0
2018-Jun-06 21:29S 24°07' W 046°21'0 0.0
2018-Jun-06 20:59S 24°07' W 046°21'0 0.0
2018-Jun-06 20:29S 24°07' W 046°21'0 0.0
2018-Jun-06 19:59S 24°07' W 046°21'0 0.0
2018-Jun-06 19:29S 24°07' W 046°21'0 0.0
2018-Jun-06 18:59S 24°07' W 046°21'0 0.0
2018-Jun-06 18:29S 24°07' W 046°21'0 0.0
2018-Jun-06 17:59S 24°07' W 046°21'0 0.0
2018-Jun-06 17:29S 24°07' W 046°21'0 0.0
2018-Jun-06 16:59S 24°07' W 046°21'0 0.0
2018-Jun-06 16:29S 24°07' W 046°21'0 0.0
2018-Jun-06 15:59S 24°07' W 046°21'0 0.0
2018-Jun-06 15:29S 24°07' W 046°21'0 0.0
2018-Jun-06 14:56S 24°07' W 046°21'0 0.0
2018-Jun-06 14:26S 24°07' W 046°21'0 0.0
2018-Jun-06 13:59S 24°07' W 046°21'0 0.0
2018-Jun-06 13:26S 24°07' W 046°21'0 0.0
2018-Jun-06 12:56S 24°07' W 046°21'0 0.0
2018-Jun-06 12:29S 24°07' W 046°21'0 0.0
2018-Jun-06 11:59S 24°07' W 046°21'0 0.1
2018-Jun-06 11:29S 24°07' W 046°21'0 0.0
2018-Jun-06 10:59S 24°07' W 046°21'0 0.0
2018-Jun-06 10:29S 24°07' W 046°21'0 0.0
2018-Jun-06 09:59S 24°07' W 046°21'0 0.0
2018-Jun-06 09:29S 24°07' W 046°21'0 0.0
2018-Jun-06 08:53S 24°07' W 046°21'0 0.0
2018-Jun-06 08:29S 24°07' W 046°21'0 0.0
2018-Jun-06 07:59S 24°07' W 046°21'0 0.0
2018-Jun-06 07:29S 24°07' W 046°21'0 0.0
2018-Jun-06 06:59S 24°07' W 046°21'0 0.0
2018-Jun-06 06:29S 24°07' W 046°21'0 0.0
2018-Jun-06 05:59S 24°07' W 046°21'0 0.0
2018-Jun-06 05:29S 24°07' W 046°21'0 0.1
2018-Jun-06 04:59S 24°07' W 046°21'0 0.2
2018-Jun-06 04:29S 24°07' W 046°21'0 0.2
2018-Jun-06 03:59S 24°07' W 046°21'0 0.1
2018-Jun-06 03:11S 24°07' W 046°21'0 0.1
2018-Jun-06 02:59S 24°07' W 046°21'0 0.0
2018-Jun-06 02:29S 24°07' W 046°21'0 0.1
2018-Jun-06 01:59S 24°07' W 046°21'0 0.1
2018-Jun-06 01:29S 24°07' W 046°21'0 0.0
2018-Jun-06 00:59S 24°07' W 046°21'0 0.1
2018-Jun-06 00:29S 24°07' W 046°21'0 0.1
2018-Jun-05 23:47S 24°07' W 046°21'0 0.1
2018-Jun-05 23:29S 24°07' W 046°21'0 0.1
2018-Jun-05 22:47S 24°07' W 046°21'0 0.1
2018-Jun-05 22:23S 24°07' W 046°21'0 0.0
2018-Jun-05 21:59S 24°07' W 046°21'0 0.1
2018-Jun-05 21:29S 24°07' W 046°21'0 0.1
2018-Jun-05 20:53S 24°07' W 046°21'0 0.0
2018-Jun-05 20:29S 24°07' W 046°21'0 0.1
2018-Jun-05 19:56S 24°07' W 046°21'0 0.0
2018-Jun-05 19:29S 24°07' W 046°21'0 0.1
2018-Jun-05 18:59S 24°07' W 046°21'0 0.0
2018-Jun-05 18:29S 24°07' W 046°21'0 0.1
2018-Jun-05 17:59S 24°07' W 046°21'0 0.0
2018-Jun-05 17:29S 24°07' W 046°21'0 0.0
2018-Jun-05 16:53S 24°07' W 046°21'0 0.1
2018-Jun-05 16:29S 24°07' W 046°21'0 0.0
2018-Jun-05 15:59S 24°07' W 046°21'0 0.0
2018-Jun-05 15:29S 24°07' W 046°21'0 0.0
2018-Jun-05 14:59S 24°07' W 046°21'0 0.0
2018-Jun-05 14:29S 24°07' W 046°21'0 0.0
2018-Jun-05 13:59S 24°07' W 046°21'0 0.0
2018-Jun-05 13:29S 24°07' W 046°21'0 0.0
2018-Jun-05 12:59S 24°07' W 046°21'0 0.0
2018-Jun-05 12:29S 24°07' W 046°21'0 0.0
2018-Jun-05 11:59S 24°07' W 046°21'0 0.1
2018-Jun-05 11:29S 24°07' W 046°21'0 0.0
2018-Jun-05 10:53S 24°07' W 046°21'0 0.0
2018-Jun-05 10:29S 24°07' W 046°21'0 0.0
2018-Jun-05 09:59S 24°07' W 046°21'0 0.0
2018-Jun-05 09:29S 24°07' W 046°21'0 0.0
2018-Jun-05 08:59S 24°07' W 046°21'0 0.0
2018-Jun-05 08:29S 24°07' W 046°21'0 0.1
2018-Jun-05 07:59S 24°07' W 046°21'0 0.1
2018-Jun-05 07:29S 24°07' W 046°21'0 0.0
2018-Jun-05 06:59S 24°07' W 046°21'0 0.0
2018-Jun-05 06:29S 24°07' W 046°21'0 0.0
2018-Jun-05 05:59S 24°07' W 046°21'0 0.0
2018-Jun-05 05:29S 24°07' W 046°21'0 0.0
2018-Jun-05 04:59S 24°07' W 046°21'0 0.0
2018-Jun-05 04:29S 24°07' W 046°21'0 0.0
2018-Jun-05 03:59S 24°07' W 046°21'0 0.0
2018-Jun-05 03:29S 24°07' W 046°21'0 0.0
2018-Jun-05 02:53S 24°07' W 046°21'0 0.0
2018-Jun-05 02:29S 24°07' W 046°21'0 0.0
2018-Jun-05 01:59S 24°07' W 046°21'0 0.0
2018-Jun-05 01:26S 24°07' W 046°21'0 0.0
2018-Jun-05 00:44S 24°07' W 046°21'0 0.0
2018-Jun-05 00:23S 24°07' W 046°21'0 0.0
2018-Jun-04 23:59S 24°07' W 046°21'0 0.0
2018-Jun-04 23:29S 24°07' W 046°21'0 0.0
2018-Jun-04 22:56S 24°07' W 046°21'0 0.0
2018-Jun-04 22:29S 24°07' W 046°21'0 0.0
2018-Jun-04 21:59S 24°07' W 046°21'0 0.0
2018-Jun-04 21:29S 24°07' W 046°21'0 0.1
2018-Jun-04 20:59S 24°07' W 046°21'0 0.0
2018-Jun-04 20:20S 24°07' W 046°21'0 0.0
2018-Jun-04 19:56S 24°07' W 046°21'0 0.0
2018-Jun-04 19:29S 24°07' W 046°21'0 0.0
2018-Jun-04 18:53S 24°07' W 046°21'0 0.0
2018-Jun-04 18:29S 24°07' W 046°21'0 0.0
2018-Jun-04 17:59S 24°07' W 046°21'0 0.0
2018-Jun-04 17:23S 24°07' W 046°21'0 0.0
2018-Jun-04 16:59S 24°07' W 046°21'0 0.0
2018-Jun-04 16:23S 24°07' W 046°21'0 0.1
2018-Jun-04 15:56S 24°07' W 046°21'0 0.0
2018-Jun-04 15:29S 24°07' W 046°21'0 0.0
2018-Jun-04 14:59S 24°07' W 046°21'0 0.0
2018-Jun-04 14:29S 24°07' W 046°21'0 0.0
2018-Jun-04 13:59S 24°07' W 046°21'0 0.0
2018-Jun-04 13:29S 24°07' W 046°21'0 0.0
2018-Jun-04 12:59S 24°07' W 046°21'0 0.0
2018-Jun-04 12:29S 24°07' W 046°21'0 0.0
2018-Jun-04 11:59S 24°07' W 046°21'0 0.0
2018-Jun-04 11:29S 24°07' W 046°21'0 0.0
2018-Jun-04 10:59S 24°07' W 046°21'0 0.0
2018-Jun-04 10:29S 24°07' W 046°21'0 0.0
2018-Jun-04 09:59S 24°07' W 046°21'0 0.0
2018-Jun-04 09:29S 24°07' W 046°21'0 0.0
2018-Jun-04 08:59S 24°07' W 046°21'0 0.1
2018-Jun-04 08:29S 24°07' W 046°21'0 0.0
2018-Jun-04 07:59S 24°07' W 046°21'0 0.0
2018-Jun-04 07:29S 24°07' W 046°21'0 0.0
2018-Jun-04 06:59S 24°07' W 046°21'0 0.0
2018-Jun-04 06:29S 24°07' W 046°21'0 0.0
2018-Jun-04 05:53S 24°07' W 046°21'0 0.0
2018-Jun-04 05:26S 24°07' W 046°21'0 0.0
2018-Jun-04 04:59S 24°07' W 046°21'0 0.0
2018-Jun-04 04:29S 24°07' W 046°21'0 0.0
2018-Jun-04 03:59S 24°07' W 046°21'0 0.0
2018-Jun-04 03:29S 24°07' W 046°21'0 0.0
2018-Jun-04 02:59S 24°07' W 046°21'0 0.0
2018-Jun-04 02:26S 24°07' W 046°21'0 0.0
2018-Jun-04 01:59S 24°07' W 046°21'0 0.0
2018-Jun-04 01:29S 24°07' W 046°21'0 0.0
2018-Jun-04 00:53S 24°07' W 046°21'0 0.0
2018-Jun-04 00:29S 24°07' W 046°21'0 0.0
2018-Jun-03 23:59S 24°07' W 046°21'0 0.0
2018-Jun-03 23:29S 24°07' W 046°21'0 0.0
2018-Jun-03 22:59S 24°07' W 046°21'0 0.0
2018-Jun-03 22:23S 24°07' W 046°21'0 0.0
2018-Jun-03 21:53S 24°07' W 046°21'0 0.0
2018-Jun-03 21:29S 24°07' W 046°21'0 0.0
2018-Jun-03 20:56S 24°07' W 046°21'0 0.0
2018-Jun-03 20:29S 24°07' W 046°21'0 0.0
2018-Jun-03 19:59S 24°07' W 046°21'0 0.0
2018-Jun-03 19:29S 24°07' W 046°21'0 0.0
2018-Jun-03 18:59S 24°07' W 046°21'0 0.0
2018-Jun-03 18:29S 24°07' W 046°21'0 0.0
2018-Jun-03 17:59S 24°07' W 046°21'0 0.0
2018-Jun-03 17:17S 24°07' W 046°21'0 0.1
2018-Jun-03 16:59S 24°07' W 046°21'0 0.0
2018-Jun-03 16:29S 24°07' W 046°21'0 0.0
2018-Jun-03 15:59S 24°07' W 046°21'0 0.0
2018-Jun-03 15:29S 24°07' W 046°21'0 0.0
2018-Jun-03 14:59S 24°07' W 046°21'0 0.0
2018-Jun-03 14:29S 24°07' W 046°21'0 0.0
2018-Jun-03 13:59S 24°07' W 046°21'0 0.0
2018-Jun-03 13:29S 24°07' W 046°21'0 0.0
2018-Jun-03 12:59S 24°07' W 046°21'0 0.0
2018-Jun-03 12:29S 24°07' W 046°21'0 0.0
2018-Jun-03 11:59S 24°07' W 046°21'0 0.0
2018-Jun-03 11:29S 24°07' W 046°21'0 0.0
2018-Jun-03 10:59S 24°07' W 046°21'0 0.0
2018-Jun-03 10:29S 24°07' W 046°21'0 0.0
2018-Jun-03 09:59S 24°07' W 046°21'0 0.0
2018-Jun-03 09:29S 24°07' W 046°21'0 0.0
2018-Jun-03 08:59S 24°07' W 046°21'0 0.0
2018-Jun-03 08:29S 24°07' W 046°21'0 0.0
2018-Jun-03 07:59S 24°07' W 046°21'0 0.0
2018-Jun-03 07:29S 24°07' W 046°21'0 0.0
2018-Jun-03 06:59S 24°07' W 046°21'0 0.1
2018-Jun-03 06:29S 24°07' W 046°21'0 0.0
2018-Jun-03 05:59S 24°07' W 046°21'0 0.0
2018-Jun-03 05:29S 24°07' W 046°21'0 0.0
2018-Jun-03 04:59S 24°07' W 046°21'0 0.0
2018-Jun-03 04:29S 24°07' W 046°21'0 0.0
2018-Jun-03 03:59S 24°07' W 046°21'0 0.0
2018-Jun-03 03:29S 24°07' W 046°21'0 0.0
2018-Jun-03 02:53S 24°07' W 046°21'0 0.0
2018-Jun-03 02:29S 24°07' W 046°21'0 0.0
2018-Jun-03 01:59S 24°07' W 046°21'0 0.0
2018-Jun-03 01:23S 24°07' W 046°21'0 0.0
2018-Jun-03 00:59S 24°07' W 046°21'0 0.0
2018-Jun-03 00:29S 24°07' W 046°21'0 0.0
2018-Jun-02 23:41S 24°07' W 046°21'0 0.0
2018-Jun-02 23:29S 24°07' W 046°21'0 0.0
2018-Jun-02 22:59S 24°07' W 046°21'0 0.0
2018-Jun-02 22:29S 24°07' W 046°21'0 0.0
2018-Jun-02 21:53S 24°07' W 046°21'0 0.1
2018-Jun-02 21:29S 24°07' W 046°21'0 0.0
2018-Jun-02 20:59S 24°07' W 046°21'0 0.0
2018-Jun-02 20:29S 24°07' W 046°21'0 0.0
2018-Jun-02 19:59S 24°07' W 046°21'0 0.0
2018-Jun-02 19:29S 24°07' W 046°21'0 0.0
2018-Jun-02 18:59S 24°07' W 046°21'0 0.0
2018-Jun-02 18:23S 24°07' W 046°21'0 0.0
2018-Jun-02 17:59S 24°07' W 046°21'0 0.0
2018-Jun-02 17:29S 24°07' W 046°21'0 0.0
2018-Jun-02 16:59S 24°07' W 046°21'0 0.0
2018-Jun-02 16:29S 24°07' W 046°21'0 0.0
2018-Jun-02 15:59S 24°07' W 046°21'0 0.0
2018-Jun-02 15:29S 24°07' W 046°21'0 0.0
2018-Jun-02 14:53S 24°07' W 046°21'0 0.1
2018-Jun-02 14:29S 24°07' W 046°21'0 0.0
2018-Jun-02 13:59S 24°07' W 046°21'0 0.0
2018-Jun-02 13:29S 24°07' W 046°21'0 0.0
2018-Jun-02 12:59S 24°07' W 046°21'0 0.0
2018-Jun-02 12:29S 24°07' W 046°21'0 0.1
2018-Jun-02 11:59S 24°07' W 046°21'0 0.0
2018-Jun-02 11:29S 24°07' W 046°21'0 0.0
2018-Jun-02 10:59S 24°07' W 046°21'0 0.1
2018-Jun-02 10:29S 24°07' W 046°21'0 0.1
2018-Jun-02 09:59S 24°07' W 046°21'0 0.0
2018-Jun-02 09:29S 24°07' W 046°21'0 0.0
2018-Jun-02 08:59S 24°07' W 046°21'0 0.0
2018-Jun-02 08:29S 24°07' W 046°21'0 0.0
2018-Jun-02 07:47S 24°07' W 046°21'0 0.0
2018-Jun-02 07:29S 24°07' W 046°21'0 0.0
2018-Jun-02 06:59S 24°07' W 046°21'0 0.0
2018-Jun-02 06:29S 24°07' W 046°21'0 0.0
2018-Jun-02 05:56S 24°07' W 046°21'0 0.0
2018-Jun-02 05:29S 24°07' W 046°21'0 0.0
2018-Jun-02 04:59S 24°07' W 046°21'0 0.1
2018-Jun-02 04:26S 24°07' W 046°21'0 0.1
2018-Jun-02 03:59S 24°07' W 046°21'0 0.1
2018-Jun-02 03:29S 24°07' W 046°21'0 0.0
2018-Jun-02 02:53S 24°07' W 046°21'0 0.0
2018-Jun-02 02:29S 24°07' W 046°21'0 0.0
2018-Jun-02 01:59S 24°07' W 046°21'0 0.0
2018-Jun-02 01:29S 24°07' W 046°21'0 0.0
2018-Jun-02 00:59S 24°07' W 046°21'0 0.1
2018-Jun-02 00:29S 24°07' W 046°21'0 0.0
2018-Jun-01 23:53S 24°07' W 046°21'0 0.0
2018-Jun-01 23:23S 24°07' W 046°21'0 0.0
2018-Jun-01 22:59S 24°07' W 046°21'0 0.1
2018-Jun-01 22:29S 24°07' W 046°21'0 0.0
2018-Jun-01 21:59S 24°07' W 046°21'0 0.0
2018-Jun-01 21:29S 24°07' W 046°21'0 0.0
2018-Jun-01 20:59S 24°07' W 046°21'0 0.0
2018-Jun-01 20:29S 24°07' W 046°21'0 0.1
2018-Jun-01 19:59S 24°07' W 046°21'0 0.0
2018-Jun-01 19:29S 24°07' W 046°21'0 0.0
2018-Jun-01 18:59S 24°07' W 046°21'0 0.0
2018-Jun-01 18:29S 24°07' W 046°21'0 0.0
2018-Jun-01 17:59S 24°07' W 046°21'0 0.0
2018-Jun-01 17:29S 24°07' W 046°21'0 0.0
2018-Jun-01 16:59S 24°07' W 046°21'0 0.0
2018-Jun-01 16:17S 24°07' W 046°21'0 0.1
2018-Jun-01 15:59S 24°07' W 046°21'0 0.1
2018-Jun-01 15:29S 24°07' W 046°21'0 0.0
2018-Jun-01 14:59S 24°07' W 046°21'0 0.0
2018-Jun-01 14:23S 24°07' W 046°21'0 0.0
2018-Jun-01 13:59S 24°07' W 046°21'0 0.0
2018-Jun-01 13:29S 24°07' W 046°21'0 0.0
2018-Jun-01 12:59S 24°07' W 046°21'0 0.0
2018-Jun-01 12:29S 24°07' W 046°21'0 0.0
2018-Jun-01 11:59S 24°07' W 046°21'0 0.0
2018-Jun-01 11:29S 24°07' W 046°21'0 0.0
2018-Jun-01 10:59S 24°07' W 046°21'0 0.0
2018-Jun-01 10:29S 24°07' W 046°21'0 0.0
2018-Jun-01 09:59S 24°07' W 046°21'0 0.0
2018-Jun-01 09:29S 24°07' W 046°21'0 0.0
2018-Jun-01 08:41S 24°07' W 046°21'0 0.0
2018-Jun-01 08:29S 24°07' W 046°21'0 0.0
2018-Jun-01 07:59S 24°07' W 046°21'0 0.0
2018-Jun-01 07:23S 24°07' W 046°21'0 0.0
2018-Jun-01 06:59S 24°07' W 046°21'0 0.0
2018-Jun-01 06:29S 24°07' W 046°21'0 0.0
2018-Jun-01 05:59S 24°07' W 046°21'0 0.0
2018-Jun-01 05:29S 24°07' W 046°21'0 0.0
2018-Jun-01 04:59S 24°07' W 046°21'0 0.0
2018-Jun-01 04:29S 24°07' W 046°21'0 0.0
2018-Jun-01 03:56S 24°07' W 046°21'0 0.0
2018-Jun-01 03:29S 24°07' W 046°21'0 0.0
2018-Jun-01 02:53S 24°07' W 046°21'0 0.0
2018-Jun-01 02:29S 24°07' W 046°21'0 0.0
2018-Jun-01 01:59S 24°07' W 046°21'0 0.0
2018-Jun-01 01:29S 24°07' W 046°21'0 0.0
2018-Jun-01 00:53S 24°07' W 046°21'0 0.0
2018-Jun-01 00:29S 24°07' W 046°21'0 0.0
2018-May-31 23:59S 24°07' W 046°21'0 0.0
2018-May-31 23:29S 24°07' W 046°21'0 0.0
2018-May-31 22:59S 24°07' W 046°21'0 0.0
2018-May-31 22:29S 24°07' W 046°21'0 0.0
2018-May-31 21:59S 24°07' W 046°21'0 0.0
2018-May-31 21:23S 24°07' W 046°21'0 0.1
2018-May-31 20:47S 24°07' W 046°21'0 0.0
2018-May-31 20:29S 24°07' W 046°21'0 0.0
2018-May-31 19:59S 24°07' W 046°21'0 0.0
2018-May-31 19:29S 24°07' W 046°21'0 0.0
2018-May-31 18:59S 24°07' W 046°21'0 0.0
2018-May-31 18:29S 24°07' W 046°21'0 0.1
2018-May-31 17:59S 24°07' W 046°21'0 0.0
2018-May-31 17:29S 24°07' W 046°21'0 0.0
2018-May-31 16:56S 24°07' W 046°21'0 0.0
2018-May-31 16:29S 24°07' W 046°21'0 0.0
2018-May-31 15:59S 24°07' W 046°21'0 0.1
2018-May-31 15:29S 24°07' W 046°21'0 0.0
2018-May-31 14:35S 24°07' W 046°21'0 0.0
2018-May-31 14:29S 24°07' W 046°21'0 0.0
2018-May-31 13:53S 24°07' W 046°21'0 0.0
2018-May-31 13:05S 24°07' W 046°21'0 0.1
2018-May-31 12:59S 24°07' W 046°21'0 0.0
2018-May-31 12:29S 24°07' W 046°21'0 0.0
2018-May-31 11:59S 24°07' W 046°21'0 0.1
2018-May-31 11:29S 24°07' W 046°21'0 0.1
2018-May-31 10:59S 24°07' W 046°21'0 0.0
2018-May-31 10:29S 24°07' W 046°21'0 0.0
2018-May-31 09:59S 24°07' W 046°21'0 0.1
2018-May-31 09:29S 24°07' W 046°21'0 0.0
2018-May-31 08:59S 24°07' W 046°21'0 0.0
2018-May-31 08:29S 24°07' W 046°21'0 0.0
2018-May-31 07:59S 24°07' W 046°21'0 0.1
2018-May-31 07:26S 24°07' W 046°21'0 0.0
2018-May-31 06:59S 24°07' W 046°21'0 0.0
2018-May-31 06:29S 24°07' W 046°21'0 0.0
2018-May-31 05:59S 24°07' W 046°21'0 0.0
2018-May-31 05:29S 24°07' W 046°21'0 0.0
2018-May-31 04:59S 24°07' W 046°21'0 0.0
2018-May-31 04:29S 24°07' W 046°21'0 0.0
2018-May-31 03:59S 24°07' W 046°21'0 0.0
2018-May-31 03:29S 24°07' W 046°21'0 0.0
2018-May-31 02:59S 24°07' W 046°21'0 0.0
2018-May-31 02:29S 24°07' W 046°21'0 0.0
2018-May-31 01:59S 24°07' W 046°21'0 0.0
2018-May-31 01:29S 24°07' W 046°21'0 0.0
2018-May-31 00:53S 24°07' W 046°21'0 0.0
2018-May-31 00:29S 24°07' W 046°21'0 0.0
2018-May-30 23:59S 24°07' W 046°21'0 0.0
2018-May-30 23:29S 24°07' W 046°21'0 0.0
2018-May-30 22:59S 24°07' W 046°21'0 0.0
2018-May-30 22:29S 24°07' W 046°21'0 0.0
2018-May-30 21:56S 24°07' W 046°21'0 0.0
2018-May-30 21:29S 24°07' W 046°21'0 0.0
2018-May-30 20:59S 24°07' W 046°21'0 0.0
2018-May-30 20:23S 24°07' W 046°21'0 0.0
2018-May-30 19:59S 24°07' W 046°21'0 0.0
2018-May-30 19:29S 24°07' W 046°21'0 0.0
2018-May-30 18:47S 24°07' W 046°21'0 0.0
2018-May-30 18:29S 24°07' W 046°21'0 0.0
2018-May-30 17:53S 24°07' W 046°21'0 0.0
2018-May-30 17:17S 24°07' W 046°21'0 0.0
2018-May-30 16:53S 24°07' W 046°21'0 0.0
2018-May-30 16:23S 24°07' W 046°21'0 0.0
2018-May-30 15:59S 24°07' W 046°21'0 0.0
2018-May-30 15:23S 24°07' W 046°21'0 0.0
2018-May-30 14:59S 24°07' W 046°21'0 0.0
2018-May-30 14:29S 24°07' W 046°21'0 0.0
2018-May-30 13:59S 24°07' W 046°21'0 0.0
2018-May-30 13:29S 24°07' W 046°21'0 0.0
2018-May-30 12:59S 24°07' W 046°21'0 0.0
2018-May-30 12:29S 24°07' W 046°21'0 0.0
2018-May-30 11:59S 24°07' W 046°21'0 0.0
2018-May-30 11:29S 24°07' W 046°21'0 0.0
2018-May-30 10:59S 24°07' W 046°21'0 0.0
2018-May-30 10:23S 24°07' W 046°21'0 0.0
2018-May-30 09:59S 24°07' W 046°21'0 0.0
2018-May-30 09:29S 24°07' W 046°21'0 0.0
2018-May-30 08:59S 24°07' W 046°21'0 0.0
2018-May-30 08:29S 24°07' W 046°21'0 0.0
2018-May-30 07:59S 24°07' W 046°21'0 0.0
2018-May-30 07:29S 24°07' W 046°21'0 0.0
2018-May-30 06:59S 24°07' W 046°21'0 0.0
2018-May-30 06:29S 24°07' W 046°21'0 0.0
2018-May-30 05:59S 24°07' W 046°21'0 0.0
2018-May-30 05:29S 24°07' W 046°21'0 0.0
2018-May-30 04:59S 24°07' W 046°21'0 0.0
2018-May-30 04:29S 24°07' W 046°21'0 0.0
2018-May-30 03:59S 24°07' W 046°21'0 0.0
2018-May-30 03:29S 24°07' W 046°21'0 0.0
2018-May-30 02:59S 24°07' W 046°21'0 0.0
2018-May-30 02:29S 24°07' W 046°21'  
Track history (hours):
 
Tides and Currents Weather Stations Pressure Air Temp Water Temp Dewpoint Dewpoint Depression Visibility Wind Speed Wind Dir Waves Ship Positions

Syros I

Last reported at 2018-Jun-09 02:15 UTC. Time now 2018-Jun-21 14:30 UTC.
Position S 24°24' W 046°17'.
Warning: this ship's position is 12 days out of date.

Length 229 m; draft 13.3 m.

Type: Cargo ship. MMSI: 636017002.

Date/timePositionNaut miles runAvg speedWind from/ knotsBaromVisibWave heightAir tempDewpointWater temp
2018-Jun-09 02:15S 24°24' W 046°17'310.8
2018-Jun-09 01:59S 24°21' W 046°19'511.0
2018-Jun-09 01:30S 24°17' W 046°21'510.8
2018-Jun-09 01:00S 24°11' W 046°22'611.2
2018-Jun-09 00:30S 24°06' W 046°22'5 9.9
2018-Jun-09 00:00S 24°01' W 046°21'3 6.2
2018-Jun-08 23:30S 23°59' W 046°18'1 0.0
2018-Jun-07 11:14S 23°59' W 046°17'0 1.8
2018-Jun-07 10:58S 23°59' W 046°18'3 7.0
2018-Jun-07 10:30S 24°01' W 046°21'4 7.9
2018-Jun-07 10:00S 24°05' W 046°22'3 5.1
2018-Jun-07 09:30S 24°07' W 046°21'0 0.4
2018-Jun-07 08:59S 24°07' W 046°21'0 0.1
2018-Jun-07 08:29S 24°07' W 046°21'0 0.0
2018-Jun-07 07:59S 24°07' W 046°21'0 0.0
2018-Jun-07 07:29S 24°07' W 046°21'0 0.0
2018-Jun-07 06:59S 24°07' W 046°21'0 0.0
2018-Jun-07 06:29S 24°07' W 046°21'0 0.0
2018-Jun-07 05:59S 24°07' W 046°21'0 0.0
2018-Jun-07 05:29S 24°07' W 046°21'0 0.0
2018-Jun-07 04:59S 24°07' W 046°21'0 0.0
2018-Jun-07 04:29S 24°07' W 046°21'0 0.0
2018-Jun-07 03:59S 24°07' W 046°21'0 0.0
2018-Jun-07 03:29S 24°07' W 046°21'0 0.0
2018-Jun-07 02:59S 24°07' W 046°21'0 0.0
2018-Jun-07 02:29S 24°07' W 046°21'0 0.0
2018-Jun-07 01:59S 24°07' W 046°21'0 0.0
2018-Jun-07 01:20S 24°07' W 046°21'0 0.0
2018-Jun-07 00:53S 24°07' W 046°21'0 0.0
2018-Jun-07 00:29S 24°07' W 046°21'0 0.0
2018-Jun-06 23:53S 24°07' W 046°21'0 0.0
2018-Jun-06 23:29S 24°07' W 046°21'0 0.0
2018-Jun-06 22:59S 24°07' W 046°21'0 0.0
2018-Jun-06 22:17S 24°07' W 046°21'0 0.0
2018-Jun-06 21:59S 24°07' W 046°21'0 0.0
2018-Jun-06 21:29S 24°07' W 046°21'0 0.0
2018-Jun-06 20:59S 24°07' W 046°21'0 0.0
2018-Jun-06 20:29S 24°07' W 046°21'0 0.0
2018-Jun-06 19:59S 24°07' W 046°21'0 0.0
2018-Jun-06 19:29S 24°07' W 046°21'0 0.0
2018-Jun-06 18:59S 24°07' W 046°21'0 0.0
2018-Jun-06 18:29S 24°07' W 046°21'0 0.0
2018-Jun-06 17:59S 24°07' W 046°21'0 0.0
2018-Jun-06 17:29S 24°07' W 046°21'0 0.0
2018-Jun-06 16:59S 24°07' W 046°21'0 0.0
2018-Jun-06 16:29S 24°07' W 046°21'0 0.0
2018-Jun-06 15:59S 24°07' W 046°21'0 0.0
2018-Jun-06 15:29S 24°07' W 046°21'0 0.0
2018-Jun-06 14:56S 24°07' W 046°21'0 0.0
2018-Jun-06 14:26S 24°07' W 046°21'0 0.0
2018-Jun-06 13:59S 24°07' W 046°21'0 0.0
2018-Jun-06 13:26S 24°07' W 046°21'0 0.0
2018-Jun-06 12:56S 24°07' W 046°21'0 0.0
2018-Jun-06 12:29S 24°07' W 046°21'0 0.0
2018-Jun-06 11:59S 24°07' W 046°21'0 0.1
2018-Jun-06 11:29S 24°07' W 046°21'0 0.0
2018-Jun-06 10:59S 24°07' W 046°21'0 0.0
2018-Jun-06 10:29S 24°07' W 046°21'0 0.0
2018-Jun-06 09:59S 24°07' W 046°21'0 0.0
2018-Jun-06 09:29S 24°07' W 046°21'0 0.0
2018-Jun-06 08:53S 24°07' W 046°21'0 0.0
2018-Jun-06 08:29S 24°07' W 046°21'0 0.0
2018-Jun-06 07:59S 24°07' W 046°21'0 0.0
2018-Jun-06 07:29S 24°07' W 046°21'0 0.0
2018-Jun-06 06:59S 24°07' W 046°21'0 0.0
2018-Jun-06 06:29S 24°07' W 046°21'0 0.0
2018-Jun-06 05:59S 24°07' W 046°21'0 0.0
2018-Jun-06 05:29S 24°07' W 046°21'0 0.1
2018-Jun-06 04:59S 24°07' W 046°21'0 0.2
2018-Jun-06 04:29S 24°07' W 046°21'0 0.2
2018-Jun-06 03:59S 24°07' W 046°21'0 0.1
2018-Jun-06 03:11S 24°07' W 046°21'0 0.1
2018-Jun-06 02:59S 24°07' W 046°21'0 0.0
2018-Jun-06 02:29S 24°07' W 046°21'0 0.1
2018-Jun-06 01:59S 24°07' W 046°21'0 0.1
2018-Jun-06 01:29S 24°07' W 046°21'0 0.0
2018-Jun-06 00:59S 24°07' W 046°21'0 0.1
2018-Jun-06 00:29S 24°07' W 046°21'0 0.1
2018-Jun-05 23:47S 24°07' W 046°21'0 0.1
2018-Jun-05 23:29S 24°07' W 046°21'0 0.1
2018-Jun-05 22:47S 24°07' W 046°21'0 0.1
2018-Jun-05 22:23S 24°07' W 046°21'0 0.0
2018-Jun-05 21:59S 24°07' W 046°21'0 0.1
2018-Jun-05 21:29S 24°07' W 046°21'0 0.1
2018-Jun-05 20:53S 24°07' W 046°21'0 0.0
2018-Jun-05 20:29S 24°07' W 046°21'0 0.1
2018-Jun-05 19:56S 24°07' W 046°21'0 0.0
2018-Jun-05 19:29S 24°07' W 046°21'0 0.1
2018-Jun-05 18:59S 24°07' W 046°21'0 0.0
2018-Jun-05 18:29S 24°07' W 046°21'0 0.1
2018-Jun-05 17:59S 24°07' W 046°21'0 0.0
2018-Jun-05 17:29S 24°07' W 046°21'0 0.0
2018-Jun-05 16:53S 24°07' W 046°21'0 0.1
2018-Jun-05 16:29S 24°07' W 046°21'0 0.0
2018-Jun-05 15:59S 24°07' W 046°21'0 0.0
2018-Jun-05 15:29S 24°07' W 046°21'0 0.0
2018-Jun-05 14:59S 24°07' W 046°21'0 0.0
2018-Jun-05 14:29S 24°07' W 046°21'0 0.0
2018-Jun-05 13:59S 24°07' W 046°21'0 0.0
2018-Jun-05 13:29S 24°07' W 046°21'0 0.0
2018-Jun-05 12:59S 24°07' W 046°21'0 0.0
2018-Jun-05 12:29S 24°07' W 046°21'0 0.0
2018-Jun-05 11:59S 24°07' W 046°21'0 0.1
2018-Jun-05 11:29S 24°07' W 046°21'0 0.0
2018-Jun-05 10:53S 24°07' W 046°21'0 0.0
2018-Jun-05 10:29S 24°07' W 046°21'0 0.0
2018-Jun-05 09:59S 24°07' W 046°21'0 0.0
2018-Jun-05 09:29S 24°07' W 046°21'0 0.0
2018-Jun-05 08:59S 24°07' W 046°21'0 0.0
2018-Jun-05 08:29S 24°07' W 046°21'0 0.1
2018-Jun-05 07:59S 24°07' W 046°21'0 0.1
2018-Jun-05 07:29S 24°07' W 046°21'0 0.0
2018-Jun-05 06:59S 24°07' W 046°21'0 0.0
2018-Jun-05 06:29S 24°07' W 046°21'0 0.0
2018-Jun-05 05:59S 24°07' W 046°21'0 0.0
2018-Jun-05 05:29S 24°07' W 046°21'0 0.0
2018-Jun-05 04:59S 24°07' W 046°21'0 0.0
2018-Jun-05 04:29S 24°07' W 046°21'0 0.0
2018-Jun-05 03:59S 24°07' W 046°21'0 0.0
2018-Jun-05 03:29S 24°07' W 046°21'0 0.0
2018-Jun-05 02:53S 24°07' W 046°21'0 0.0
2018-Jun-05 02:29S 24°07' W 046°21'0 0.0
2018-Jun-05 01:59S 24°07' W 046°21'0 0.0
2018-Jun-05 01:26S 24°07' W 046°21'0 0.0
2018-Jun-05 00:44S 24°07' W 046°21'0 0.0
2018-Jun-05 00:23S 24°07' W 046°21'0 0.0
2018-Jun-04 23:59S 24°07' W 046°21'0 0.0
2018-Jun-04 23:29S 24°07' W 046°21'0 0.0
2018-Jun-04 22:56S 24°07' W 046°21'0 0.0
2018-Jun-04 22:29S 24°07' W 046°21'0 0.0
2018-Jun-04 21:59S 24°07' W 046°21'0 0.0
2018-Jun-04 21:29S 24°07' W 046°21'0 0.1
2018-Jun-04 20:59S 24°07' W 046°21'0 0.0
2018-Jun-04 20:20S 24°07' W 046°21'0 0.0
2018-Jun-04 19:56S 24°07' W 046°21'0 0.0
2018-Jun-04 19:29S 24°07' W 046°21'0 0.0
2018-Jun-04 18:53S 24°07' W 046°21'0 0.0
2018-Jun-04 18:29S 24°07' W 046°21'0 0.0
2018-Jun-04 17:59S 24°07' W 046°21'0 0.0
2018-Jun-04 17:23S 24°07' W 046°21'0 0.0
2018-Jun-04 16:59S 24°07' W 046°21'0 0.0
2018-Jun-04 16:23S 24°07' W 046°21'0 0.1
2018-Jun-04 15:56S 24°07' W 046°21'0 0.0
2018-Jun-04 15:29S 24°07' W 046°21'0 0.0
2018-Jun-04 14:59S 24°07' W 046°21'0 0.0
2018-Jun-04 14:29S 24°07' W 046°21'0 0.0
2018-Jun-04 13:59S 24°07' W 046°21'0 0.0
2018-Jun-04 13:29S 24°07' W 046°21'0 0.0
2018-Jun-04 12:59S 24°07' W 046°21'0 0.0
2018-Jun-04 12:29S 24°07' W 046°21'0 0.0
2018-Jun-04 11:59S 24°07' W 046°21'0 0.0
2018-Jun-04 11:29S 24°07' W 046°21'0 0.0
2018-Jun-04 10:59S 24°07' W 046°21'0 0.0
2018-Jun-04 10:29S 24°07' W 046°21'0 0.0
2018-Jun-04 09:59S 24°07' W 046°21'0 0.0
2018-Jun-04 09:29S 24°07' W 046°21'0 0.0
2018-Jun-04 08:59S 24°07' W 046°21'0 0.1
2018-Jun-04 08:29S 24°07' W 046°21'0 0.0
2018-Jun-04 07:59S 24°07' W 046°21'0 0.0
2018-Jun-04 07:29S 24°07' W 046°21'0 0.0
2018-Jun-04 06:59S 24°07' W 046°21'0 0.0
2018-Jun-04 06:29S 24°07' W 046°21'0 0.0
2018-Jun-04 05:53S 24°07' W 046°21'0 0.0
2018-Jun-04 05:26S 24°07' W 046°21'0 0.0
2018-Jun-04 04:59S 24°07' W 046°21'0 0.0
2018-Jun-04 04:29S 24°07' W 046°21'0 0.0
2018-Jun-04 03:59S 24°07' W 046°21'0 0.0
2018-Jun-04 03:29S 24°07' W 046°21'0 0.0
2018-Jun-04 02:59S 24°07' W 046°21'0 0.0
2018-Jun-04 02:26S 24°07' W 046°21'0 0.0
2018-Jun-04 01:59S 24°07' W 046°21'0 0.0
2018-Jun-04 01:29S 24°07' W 046°21'0 0.0
2018-Jun-04 00:53S 24°07' W 046°21'0 0.0
2018-Jun-04 00:29S 24°07' W 046°21'0 0.0
2018-Jun-03 23:59S 24°07' W 046°21'0 0.0
2018-Jun-03 23:29S 24°07' W 046°21'0 0.0
2018-Jun-03 22:59S 24°07' W 046°21'0 0.0
2018-Jun-03 22:23S 24°07' W 046°21'0 0.0
2018-Jun-03 21:53S 24°07' W 046°21'0 0.0
2018-Jun-03 21:29S 24°07' W 046°21'0 0.0
2018-Jun-03 20:56S 24°07' W 046°21'0 0.0
2018-Jun-03 20:29S 24°07' W 046°21'0 0.0
2018-Jun-03 19:59S 24°07' W 046°21'0 0.0
2018-Jun-03 19:29S 24°07' W 046°21'0 0.0
2018-Jun-03 18:59S 24°07' W 046°21'0 0.0
2018-Jun-03 18:29S 24°07' W 046°21'0 0.0
2018-Jun-03 17:59S 24°07' W 046°21'0 0.0
2018-Jun-03 17:17S 24°07' W 046°21'0 0.1
2018-Jun-03 16:59S 24°07' W 046°21'0 0.0
2018-Jun-03 16:29S 24°07' W 046°21'0 0.0
2018-Jun-03 15:59S 24°07' W 046°21'0 0.0
2018-Jun-03 15:29S 24°07' W 046°21'0 0.0
2018-Jun-03 14:59S 24°07' W 046°21'0 0.0
2018-Jun-03 14:29S 24°07' W 046°21'0 0.0
2018-Jun-03 13:59S 24°07' W 046°21'0 0.0
2018-Jun-03 13:29S 24°07' W 046°21'0 0.0
2018-Jun-03 12:59S 24°07' W 046°21'0 0.0
2018-Jun-03 12:29S 24°07' W 046°21'0 0.0
2018-Jun-03 11:59S 24°07' W 046°21'0 0.0
2018-Jun-03 11:29S 24°07' W 046°21'0 0.0
2018-Jun-03 10:59S 24°07' W 046°21'0 0.0
2018-Jun-03 10:29S 24°07' W 046°21'0 0.0
2018-Jun-03 09:59S 24°07' W 046°21'0 0.0
2018-Jun-03 09:29S 24°07' W 046°21'0 0.0
2018-Jun-03 08:59S 24°07' W 046°21'0 0.0
2018-Jun-03 08:29S 24°07' W 046°21'0 0.0
2018-Jun-03 07:59S 24°07' W 046°21'0 0.0
2018-Jun-03 07:29S 24°07' W 046°21'0 0.0
2018-Jun-03 06:59S 24°07' W 046°21'0 0.1
2018-Jun-03 06:29S 24°07' W 046°21'0 0.0
2018-Jun-03 05:59S 24°07' W 046°21'0 0.0
2018-Jun-03 05:29S 24°07' W 046°21'0 0.0
2018-Jun-03 04:59S 24°07' W 046°21'0 0.0
2018-Jun-03 04:29S 24°07' W 046°21'0 0.0
2018-Jun-03 03:59S 24°07' W 046°21'0 0.0
2018-Jun-03 03:29S 24°07' W 046°21'0 0.0
2018-Jun-03 02:53S 24°07' W 046°21'0 0.0
2018-Jun-03 02:29S 24°07' W 046°21'0 0.0
2018-Jun-03 01:59S 24°07' W 046°21'0 0.0
2018-Jun-03 01:23S 24°07' W 046°21'0 0.0
2018-Jun-03 00:59S 24°07' W 046°21'0 0.0
2018-Jun-03 00:29S 24°07' W 046°21'0 0.0
2018-Jun-02 23:41S 24°07' W 046°21'0 0.0
2018-Jun-02 23:29S 24°07' W 046°21'0 0.0
2018-Jun-02 22:59S 24°07' W 046°21'0 0.0
2018-Jun-02 22:29S 24°07' W 046°21'0 0.0
2018-Jun-02 21:53S 24°07' W 046°21'0 0.1
2018-Jun-02 21:29S 24°07' W 046°21'0 0.0
2018-Jun-02 20:59S 24°07' W 046°21'0 0.0
2018-Jun-02 20:29S 24°07' W 046°21'0 0.0
2018-Jun-02 19:59S 24°07' W 046°21'0 0.0
2018-Jun-02 19:29S 24°07' W 046°21'0 0.0
2018-Jun-02 18:59S 24°07' W 046°21'0 0.0
2018-Jun-02 18:23S 24°07' W 046°21'0 0.0
2018-Jun-02 17:59S 24°07' W 046°21'0 0.0
2018-Jun-02 17:29S 24°07' W 046°21'0 0.0
2018-Jun-02 16:59S 24°07' W 046°21'0 0.0
2018-Jun-02 16:29S 24°07' W 046°21'0 0.0
2018-Jun-02 15:59S 24°07' W 046°21'0 0.0
2018-Jun-02 15:29S 24°07' W 046°21'0 0.0
2018-Jun-02 14:53S 24°07' W 046°21'0 0.1
2018-Jun-02 14:29S 24°07' W 046°21'0 0.0
2018-Jun-02 13:59S 24°07' W 046°21'0 0.0
2018-Jun-02 13:29S 24°07' W 046°21'0 0.0
2018-Jun-02 12:59S 24°07' W 046°21'0 0.0
2018-Jun-02 12:29S 24°07' W 046°21'0 0.1
2018-Jun-02 11:59S 24°07' W 046°21'0 0.0
2018-Jun-02 11:29S 24°07' W 046°21'0 0.0
2018-Jun-02 10:59S 24°07' W 046°21'0 0.1
2018-Jun-02 10:29S 24°07' W 046°21'0 0.1
2018-Jun-02 09:59S 24°07' W 046°21'0 0.0
2018-Jun-02 09:29S 24°07' W 046°21'0 0.0
2018-Jun-02 08:59S 24°07' W 046°21'0 0.0
2018-Jun-02 08:29S 24°07' W 046°21'0 0.0
2018-Jun-02 07:47S 24°07' W 046°21'0 0.0
2018-Jun-02 07:29S 24°07' W 046°21'0 0.0
2018-Jun-02 06:59S 24°07' W 046°21'0 0.0
2018-Jun-02 06:29S 24°07' W 046°21'0 0.0
2018-Jun-02 05:56S 24°07' W 046°21'0 0.0
2018-Jun-02 05:29S 24°07' W 046°21'0 0.0
2018-Jun-02 04:59S 24°07' W 046°21'0 0.1
2018-Jun-02 04:26S 24°07' W 046°21'0 0.1
2018-Jun-02 03:59S 24°07' W 046°21'0 0.1
2018-Jun-02 03:29S 24°07' W 046°21'0 0.0
2018-Jun-02 02:53S 24°07' W 046°21'0 0.0
2018-Jun-02 02:29S 24°07' W 046°21'0 0.0
2018-Jun-02 01:59S 24°07' W 046°21'0 0.0
2018-Jun-02 01:29S 24°07' W 046°21'0 0.0
2018-Jun-02 00:59S 24°07' W 046°21'0 0.1
2018-Jun-02 00:29S 24°07' W 046°21'0 0.0
2018-Jun-01 23:53S 24°07' W 046°21'0 0.0
2018-Jun-01 23:23S 24°07' W 046°21'0 0.0
2018-Jun-01 22:59S 24°07' W 046°21'0 0.1
2018-Jun-01 22:29S 24°07' W 046°21'0 0.0
2018-Jun-01 21:59S 24°07' W 046°21'0 0.0
2018-Jun-01 21:29S 24°07' W 046°21'0 0.0
2018-Jun-01 20:59S 24°07' W 046°21'0 0.0
2018-Jun-01 20:29S 24°07' W 046°21'0 0.1
2018-Jun-01 19:59S 24°07' W 046°21'0 0.0
2018-Jun-01 19:29S 24°07' W 046°21'0 0.0
2018-Jun-01 18:59S 24°07' W 046°21'0 0.0
2018-Jun-01 18:29S 24°07' W 046°21'0 0.0
2018-Jun-01 17:59S 24°07' W 046°21'0 0.0
2018-Jun-01 17:29S 24°07' W 046°21'0 0.0
2018-Jun-01 16:59S 24°07' W 046°21'0 0.0
2018-Jun-01 16:17S 24°07' W 046°21'0 0.1
2018-Jun-01 15:59S 24°07' W 046°21'0 0.1
2018-Jun-01 15:29S 24°07' W 046°21'0 0.0
2018-Jun-01 14:59S 24°07' W 046°21'0 0.0
2018-Jun-01 14:23S 24°07' W 046°21'0 0.0
2018-Jun-01 13:59S 24°07' W 046°21'0 0.0
2018-Jun-01 13:29S 24°07' W 046°21'0 0.0
2018-Jun-01 12:59S 24°07' W 046°21'0 0.0
2018-Jun-01 12:29S 24°07' W 046°21'0 0.0
2018-Jun-01 11:59S 24°07' W 046°21'0 0.0
2018-Jun-01 11:29S 24°07' W 046°21'0 0.0
2018-Jun-01 10:59S 24°07' W 046°21'0 0.0
2018-Jun-01 10:29S 24°07' W 046°21'0 0.0
2018-Jun-01 09:59S 24°07' W 046°21'0 0.0
2018-Jun-01 09:29S 24°07' W 046°21'0 0.0
2018-Jun-01 08:41S 24°07' W 046°21'0 0.0
2018-Jun-01 08:29S 24°07' W 046°21'0 0.0
2018-Jun-01 07:59S 24°07' W 046°21'0 0.0
2018-Jun-01 07:23S 24°07' W 046°21'0 0.0
2018-Jun-01 06:59S 24°07' W 046°21'0 0.0
2018-Jun-01 06:29S 24°07' W 046°21'0 0.0
2018-Jun-01 05:59S 24°07' W 046°21'0 0.0
2018-Jun-01 05:29S 24°07' W 046°21'0 0.0
2018-Jun-01 04:59S 24°07' W 046°21'0 0.0
2018-Jun-01 04:29S 24°07' W 046°21'0 0.0
2018-Jun-01 03:56S 24°07' W 046°21'0 0.0
2018-Jun-01 03:29S 24°07' W 046°21'0 0.0
2018-Jun-01 02:53S 24°07' W 046°21'0 0.0
2018-Jun-01 02:29S 24°07' W 046°21'0 0.0
2018-Jun-01 01:59S 24°07' W 046°21'0 0.0
2018-Jun-01 01:29S 24°07' W 046°21'0 0.0
2018-Jun-01 00:53S 24°07' W 046°21'0 0.0
2018-Jun-01 00:29S 24°07' W 046°21'0 0.0
2018-May-31 23:59S 24°07' W 046°21'0 0.0
2018-May-31 23:29S 24°07' W 046°21'0 0.0
2018-May-31 22:59S 24°07' W 046°21'0 0.0
2018-May-31 22:29S 24°07' W 046°21'0 0.0
2018-May-31 21:59S 24°07' W 046°21'0 0.0
2018-May-31 21:23S 24°07' W 046°21'0 0.1
2018-May-31 20:47S 24°07' W 046°21'0 0.0
2018-May-31 20:29S 24°07' W 046°21'0 0.0
2018-May-31 19:59S 24°07' W 046°21'0 0.0
2018-May-31 19:29S 24°07' W 046°21'0 0.0
2018-May-31 18:59S 24°07' W 046°21'0 0.0
2018-May-31 18:29S 24°07' W 046°21'0 0.1
2018-May-31 17:59S 24°07' W 046°21'0 0.0
2018-May-31 17:29S 24°07' W 046°21'0 0.0
2018-May-31 16:56S 24°07' W 046°21'0 0.0
2018-May-31 16:29S 24°07' W 046°21'0 0.0
2018-May-31 15:59S 24°07' W 046°21'0 0.1
2018-May-31 15:29S 24°07' W 046°21'0 0.0
2018-May-31 14:35S 24°07' W 046°21'0 0.0
2018-May-31 14:29S 24°07' W 046°21'0 0.0
2018-May-31 13:53S 24°07' W 046°21'0 0.0
2018-May-31 13:05S 24°07' W 046°21'0 0.1
2018-May-31 12:59S 24°07' W 046°21'0 0.0
2018-May-31 12:29S 24°07' W 046°21'0 0.0
2018-May-31 11:59S 24°07' W 046°21'0 0.1
2018-May-31 11:29S 24°07' W 046°21'0 0.1
2018-May-31 10:59S 24°07' W 046°21'0 0.0
2018-May-31 10:29S 24°07' W 046°21'0 0.0
2018-May-31 09:59S 24°07' W 046°21'0 0.1
2018-May-31 09:29S 24°07' W 046°21'0 0.0
2018-May-31 08:59S 24°07' W 046°21'0 0.0
2018-May-31 08:29S 24°07' W 046°21'0 0.0
2018-May-31 07:59S 24°07' W 046°21'0 0.1
2018-May-31 07:26S 24°07' W 046°21'0 0.0
2018-May-31 06:59S 24°07' W 046°21'0 0.0
2018-May-31 06:29S 24°07' W 046°21'0 0.0
2018-May-31 05:59S 24°07' W 046°21'0 0.0
2018-May-31 05:29S 24°07' W 046°21'0 0.0
2018-May-31 04:59S 24°07' W 046°21'0 0.0
2018-May-31 04:29S 24°07' W 046°21'0 0.0
2018-May-31 03:59S 24°07' W 046°21'0 0.0
2018-May-31 03:29S 24°07' W 046°21'0 0.0
2018-May-31 02:59S 24°07' W 046°21'0 0.0
2018-May-31 02:29S 24°07' W 046°21'0 0.0
2018-May-31 01:59S 24°07' W 046°21'0 0.0
2018-May-31 01:29S 24°07' W 046°21'0 0.0
2018-May-31 00:53S 24°07' W 046°21'0 0.0
2018-May-31 00:29S 24°07' W 046°21'0 0.0
2018-May-30 23:59S 24°07' W 046°21'0 0.0
2018-May-30 23:29S 24°07' W 046°21'0 0.0
2018-May-30 22:59S 24°07' W 046°21'0 0.0
2018-May-30 22:29S 24°07' W 046°21'0 0.0
2018-May-30 21:56S 24°07' W 046°21'0 0.0
2018-May-30 21:29S 24°07' W 046°21'0 0.0
2018-May-30 20:59S 24°07' W 046°21'0 0.0
2018-May-30 20:23S 24°07' W 046°21'0 0.0
2018-May-30 19:59S 24°07' W 046°21'0 0.0
2018-May-30 19:29S 24°07' W 046°21'0 0.0
2018-May-30 18:47S 24°07' W 046°21'0 0.0
2018-May-30 18:29S 24°07' W 046°21'0 0.0
2018-May-30 17:53S 24°07' W 046°21'0 0.0
2018-May-30 17:17S 24°07' W 046°21'0 0.0
2018-May-30 16:53S 24°07' W 046°21'0 0.0
2018-May-30 16:23S 24°07' W 046°21'0 0.0
2018-May-30 15:59S 24°07' W 046°21'0 0.0
2018-May-30 15:23S 24°07' W 046°21'0 0.0
2018-May-30 14:59S 24°07' W 046°21'0 0.0
2018-May-30 14:29S 24°07' W 046°21'0 0.0
2018-May-30 13:59S 24°07' W 046°21'0 0.0
2018-May-30 13:29S 24°07' W 046°21'0 0.0
2018-May-30 12:59S 24°07' W 046°21'0 0.0
2018-May-30 12:29S 24°07' W 046°21'0 0.0
2018-May-30 11:59S 24°07' W 046°21'0 0.0
2018-May-30 11:29S 24°07' W 046°21'0 0.0
2018-May-30 10:59S 24°07' W 046°21'0 0.0
2018-May-30 10:23S 24°07' W 046°21'0 0.0
2018-May-30 09:59S 24°07' W 046°21'0 0.0
2018-May-30 09:29S 24°07' W 046°21'0 0.0
2018-May-30 08:59S 24°07' W 046°21'0 0.0
2018-May-30 08:29S 24°07' W 046°21'0 0.0
2018-May-30 07:59S 24°07' W 046°21'0 0.0
2018-May-30 07:29S 24°07' W 046°21'0 0.0
2018-May-30 06:59S 24°07' W 046°21'0 0.0
2018-May-30 06:29S 24°07' W 046°21'0 0.0
2018-May-30 05:59S 24°07' W 046°21'0 0.0
2018-May-30 05:29S 24°07' W 046°21'0 0.0
2018-May-30 04:59S 24°07' W 046°21'0 0.0
2018-May-30 04:29S 24°07' W 046°21'0 0.0
2018-May-30 03:59S 24°07' W 046°21'0 0.0
2018-May-30 03:29S 24°07' W 046°21'0 0.0
2018-May-30 02:59S 24°07' W 046°21'0 0.0
2018-May-30 02:29S 24°07' W 046°21'  

Dump ship's entire track history